createdAt,value
2019-03-09T00:01:28.463Z,99401.16
2019-03-09T00:04:03.206Z,99392.64
2019-03-09T00:06:39.069Z,99388.26
2019-03-09T00:09:11.689Z,99378.03
2019-03-09T00:11:45.712Z,99383.04
2019-03-09T00:14:19.676Z,99380.73
2019-03-09T00:16:52.360Z,99369.41
2019-03-09T00:19:27.963Z,99369.19
2019-03-09T00:22:01.784Z,99368.43
2019-03-09T00:24:41.588Z,99370.29
2019-03-09T00:27:36.367Z,99367.13
2019-03-09T00:30:29.960Z,99364.17
2019-03-09T00:33:02.722Z,99347.38
2019-03-09T00:35:37.194Z,99347.95
2019-03-09T00:38:11.659Z,99359.97
2019-03-09T00:40:44.584Z,99360.13
2019-03-09T00:43:17.514Z,99355.37
2019-03-09T00:45:50.525Z,99359.45
2019-03-09T00:48:24.383Z,99360.42
2019-03-09T00:50:56.772Z,99351.78
2019-03-09T00:53:30.630Z,99350.67
2019-03-09T00:56:04.963Z,99347.98
2019-03-09T00:58:37.565Z,99340.63
2019-03-09T01:01:10.763Z,99328.52
2019-03-09T01:03:43.336Z,99332.30
2019-03-09T01:06:16.059Z,99328.86
2019-03-09T01:08:49.079Z,99325.27
2019-03-09T01:11:21.623Z,99326.36
2019-03-09T01:13:54.218Z,99320.73
2019-03-09T01:16:27.271Z,99311.33
2019-03-09T01:18:59.823Z,99301.59
2019-03-09T01:21:32.525Z,99296.82
2019-03-09T01:24:05.592Z,99297.55
2019-03-09T01:26:38.159Z,99295.34
2019-03-09T01:29:11.098Z,99294.34
2019-03-09T01:31:44.910Z,99293.78
2019-03-09T01:34:17.494Z,99288.17
2019-03-09T01:36:50.091Z,99282.36
2019-03-09T01:39:23.087Z,99282.43
2019-03-09T01:41:55.658Z,99275.66
2019-03-09T01:44:28.211Z,99270.91
2019-03-09T01:47:01.224Z,99260.13
2019-03-09T01:49:33.745Z,99262.27
2019-03-09T01:52:07.120Z,99256.38
2019-03-09T01:54:40.866Z,99243.38
2019-03-09T01:57:14.357Z,99219.16
2019-03-09T01:59:47.765Z,99241.45
2019-03-09T02:02:21.554Z,99247.24
2019-03-09T02:04:54.179Z,99254.56
2019-03-09T02:07:27.552Z,99243.70
2019-03-09T02:10:00.422Z,99203.92
2019-03-09T02:12:35.419Z,99230.55
2019-03-09T02:15:08.644Z,99222.22
2019-03-09T02:17:41.779Z,99227.05
2019-03-09T02:20:15.286Z,99238.97
2019-03-09T02:22:48.340Z,99224.23
2019-03-09T02:25:20.944Z,99207.39
2019-03-09T02:27:53.486Z,99219.66
2019-03-09T02:30:26.151Z,99216.79
2019-03-09T02:32:59.129Z,99217.30
2019-03-09T02:35:31.678Z,99210.97
2019-03-09T02:38:24.877Z,99203.31
2019-03-09T02:40:57.679Z,99201.58
2019-03-09T02:43:30.254Z,99213.21
2019-03-09T02:46:02.799Z,99203.56
2019-03-09T02:48:35.408Z,99211.56
2019-03-09T02:51:09.246Z,99204.12
2019-03-09T02:53:43.376Z,99207.87
2019-03-09T02:56:16.663Z,99200.05
2019-03-09T02:58:49.722Z,99206.98
2019-03-09T03:01:35.372Z,99204.08
2019-03-09T03:04:08.826Z,99205.23
2019-03-09T03:06:41.662Z,99197.98
2019-03-09T03:09:15.466Z,99188.33
2019-03-09T03:11:48.849Z,99216.23
2019-03-09T03:14:23.127Z,99221.17
2019-03-09T03:16:55.679Z,99194.94
2019-03-09T03:19:28.445Z,99207.87
2019-03-09T03:22:01.731Z,99223.63
2019-03-09T03:24:34.407Z,99215.27
2019-03-09T03:27:07.036Z,99213.89
2019-03-09T03:29:41.590Z,99219.00
2019-03-09T03:32:14.163Z,99220.47
2019-03-09T03:34:46.733Z,99223.87
2019-03-09T03:37:19.546Z,99218.83
2019-03-09T03:39:52.157Z,99223.25
2019-03-09T03:42:24.938Z,99225.29
2019-03-09T03:44:57.930Z,99212.36
2019-03-09T03:47:30.418Z,99217.20
2019-03-09T03:50:03.110Z,99218.22
2019-03-09T03:52:36.050Z,99216.55
2019-03-09T03:55:08.732Z,99206.87
2019-03-09T03:57:41.171Z,99213.44
2019-03-09T04:00:17.209Z,99218.70
2019-03-09T04:02:49.876Z,99212.11
2019-03-09T04:05:25.574Z,99220.53
2019-03-09T04:07:59.951Z,99217.91
2019-03-09T04:10:33.413Z,99231.35
2019-03-09T04:13:05.880Z,99235.19
2019-03-09T04:15:39.972Z,99240.44
2019-03-09T04:18:12.404Z,99233.58
2019-03-09T04:20:45.051Z,99243.55
2019-03-09T04:23:17.748Z,99235.88
2019-03-09T04:25:50.432Z,99239.44
2019-03-09T04:28:23.096Z,99235.25
2019-03-09T04:30:55.898Z,99248.98
2019-03-09T04:33:29.229Z,99265.12
2019-03-09T04:36:01.667Z,99285.02
2019-03-09T04:38:34.660Z,99278.89
2019-03-09T04:41:07.283Z,99262.72
2019-03-09T04:43:40.004Z,99253.29
2019-03-09T04:46:12.886Z,99269.50
2019-03-09T04:48:45.440Z,99285.43
2019-03-09T04:51:18.055Z,99322.02
2019-03-09T04:53:51.082Z,99295.03
2019-03-09T04:56:23.607Z,99296.75
2019-03-09T04:58:56.154Z,99283.18
2019-03-09T05:01:29.243Z,99308.64
2019-03-09T05:04:40.929Z,99321.97
2019-03-09T05:07:26.107Z,99317.53
2019-03-09T05:10:21.056Z,99324.02
2019-03-09T05:13:01.183Z,99312.92
2019-03-09T05:15:34.078Z,99322.88
2019-03-09T05:18:06.994Z,99318.23
2019-03-09T05:20:39.450Z,99335.53
2019-03-09T05:23:12.133Z,99322.09
2019-03-09T05:25:45.923Z,99334.19
2019-03-09T05:28:18.764Z,99329.73
2019-03-09T05:30:52.732Z,99338.41
2019-03-09T05:33:25.304Z,99346.05
2019-03-09T05:35:57.786Z,99354.78
2019-03-09T05:38:30.651Z,99360.31
2019-03-09T05:41:03.262Z,99377.04
2019-03-09T05:43:35.770Z,99384.37
2019-03-09T05:46:08.838Z,99385.64
2019-03-09T05:48:41.533Z,99375.22
2019-03-09T05:51:14.184Z,99370.73
2019-03-09T05:53:47.247Z,99386.22
2019-03-09T05:56:19.689Z,99368.42
2019-03-09T05:58:52.767Z,99377.11
2019-03-09T06:01:25.788Z,99359.88
2019-03-09T06:04:00.242Z,99343.59
2019-03-09T06:06:32.884Z,99338.37
2019-03-09T06:09:06.696Z,99350.92
2019-03-09T06:11:39.251Z,99359.39
2019-03-09T06:14:12.535Z,99362.29
2019-03-09T06:16:46.371Z,99352.68
2019-03-09T06:19:19.072Z,99372.38
2019-03-09T06:21:51.861Z,99373.89
2019-03-09T06:24:25.075Z,99375.61
2019-03-09T06:26:57.574Z,99374.13
2019-03-09T06:29:30.293Z,99379.30
2019-03-09T06:32:42.935Z,99383.42
2019-03-09T06:35:27.302Z,99400.28
2019-03-09T06:38:36.795Z,99420.47
2019-03-09T06:41:41.533Z,99433.45
2019-03-09T06:44:15.347Z,99445.88
2019-03-09T06:46:50.046Z,99455.64
2019-03-09T06:49:22.681Z,99462.33
2019-03-09T06:51:55.378Z,99459.23
2019-03-09T06:54:30.557Z,99448.95
2019-03-09T06:57:03.113Z,99454.42
2019-03-09T06:59:36.624Z,99462.24
2019-03-09T07:02:10.192Z,99468.13
2019-03-09T07:04:42.913Z,99479.48
2019-03-09T07:07:16.391Z,99489.73
2019-03-09T07:09:48.920Z,99482.53
2019-03-09T07:12:21.490Z,99472.09
2019-03-09T07:15:22.667Z,99469.34
2019-03-09T07:18:01.801Z,99478.06
2019-03-09T07:20:35.740Z,99488.58
2019-03-09T07:23:09.215Z,99491.06
2019-03-09T07:25:41.802Z,99477.86
2019-03-09T07:28:17.703Z,99487.60
2019-03-09T07:30:53.761Z,99489.30
2019-03-09T07:33:26.667Z,99499.00
2019-03-09T07:36:00.829Z,99490.21
2019-03-09T07:38:33.651Z,99503.44
2019-03-09T07:41:08.955Z,99493.83
2019-03-09T07:43:41.664Z,99518.42
2019-03-09T07:46:15.463Z,99530.22
2019-03-09T07:48:51.177Z,99538.28
2019-03-09T07:51:23.838Z,99525.30
2019-03-09T07:53:58.929Z,99508.70
2019-03-09T07:56:31.523Z,99512.34
2019-03-09T07:59:04.219Z,99511.52
2019-03-09T08:01:37.073Z,99510.47
2019-03-09T08:04:10.531Z,99516.80
2019-03-09T08:06:43.133Z,99511.16
2019-03-09T08:09:32.712Z,99511.03
2019-03-09T08:12:06.281Z,99515.83
2019-03-09T08:14:39.771Z,99524.81
2019-03-09T08:17:14.402Z,99527.31
2019-03-09T08:19:49.274Z,99528.17
2019-03-09T08:22:23.005Z,99547.09
2019-03-09T08:24:57.953Z,99545.79
2019-03-09T08:27:32.458Z,99549.02
2019-03-09T08:30:13.791Z,99543.46
2019-03-09T08:32:48.266Z,99549.98
2019-03-09T08:35:21.641Z,99534.08
2019-03-09T08:37:54.587Z,99527.56
2019-03-09T08:40:28.155Z,99511.16
2019-03-09T08:43:01.843Z,99515.67
2019-03-09T08:45:36.516Z,99498.05
2019-03-09T08:48:32.191Z,99512.58
2019-03-09T08:51:25.040Z,99505.28
2019-03-09T08:54:15.504Z,99513.83
2019-03-09T08:57:09.666Z,99539.30
2019-03-09T09:00:04.145Z,99530.64
2019-03-09T09:02:58.802Z,99531.84
2019-03-09T09:05:34.795Z,99536.31
2019-03-09T09:08:10.290Z,99559.22
2019-03-09T09:10:44.454Z,99544.99
2019-03-09T09:13:17.913Z,99538.00
2019-03-09T09:15:51.354Z,99535.18
2019-03-09T09:18:25.185Z,99548.95
2019-03-09T09:20:58.107Z,99555.03
2019-03-09T09:23:31.309Z,99545.20
2019-03-09T09:26:19.978Z,99552.43
2019-03-09T09:28:54.782Z,99526.99
2019-03-09T09:31:30.992Z,99519.84
2019-03-09T09:34:03.751Z,99517.96
2019-03-09T09:36:36.800Z,99512.17
2019-03-09T09:39:12.855Z,99507.38
2019-03-09T09:41:45.755Z,99503.91
2019-03-09T09:44:21.511Z,99498.47
2019-03-09T09:46:54.164Z,99512.98
2019-03-09T09:49:27.214Z,99519.17
2019-03-09T09:52:00.265Z,99532.73
2019-03-09T09:54:34.959Z,99532.73
2019-03-09T09:57:08.846Z,99545.27
2019-03-09T09:59:42.755Z,99545.56
2019-03-09T10:02:16.563Z,99545.58
2019-03-09T10:04:51.809Z,99549.34
2019-03-09T10:07:25.397Z,99529.17
2019-03-09T10:09:58.625Z,99527.96
2019-03-09T10:12:34.491Z,99516.92
2019-03-09T10:15:16.700Z,99510.38
2019-03-09T10:17:53.419Z,99505.98
2019-03-09T10:20:27.589Z,99511.75
2019-03-09T10:23:04.567Z,99522.14
2019-03-09T10:25:38.918Z,99523.99
2019-03-09T10:28:16.507Z,99523.27
2019-03-09T10:30:49.950Z,99523.40
2019-03-09T10:33:30.947Z,99519.92
2019-03-09T10:36:04.240Z,99510.09
2019-03-09T10:38:37.661Z,99512.59
2019-03-09T10:41:11.696Z,99505.09
2019-03-09T10:43:44.346Z,99504.05
2019-03-09T10:46:17.063Z,99492.92
2019-03-09T10:48:50.505Z,99496.27
2019-03-09T10:51:24.602Z,99488.40
2019-03-09T10:53:58.370Z,99479.97
2019-03-09T10:56:31.186Z,99475.17
2019-03-09T10:59:05.145Z,99468.20
2019-03-09T11:01:38.861Z,99448.23
2019-03-09T11:04:27.018Z,99451.27
2019-03-09T11:07:11.513Z,99456.39
2019-03-09T11:09:45.539Z,99446.19
2019-03-09T11:12:20.277Z,99469.81
2019-03-09T11:14:56.960Z,99443.30
2019-03-09T11:17:31.775Z,99438.19
2019-03-09T11:20:05.504Z,99440.76
2019-03-09T11:22:39.364Z,99455.34
2019-03-09T11:25:15.240Z,99455.34
2019-03-09T11:27:49.821Z,99478.75
2019-03-09T11:30:27.744Z,99455.37
2019-03-09T11:33:01.143Z,99451.64
2019-03-09T11:35:33.739Z,99438.27
2019-03-09T11:38:07.059Z,99440.09
2019-03-09T11:40:40.345Z,99443.52
2019-03-09T11:43:17.075Z,99441.66
2019-03-09T11:45:50.838Z,99429.63
2019-03-09T11:48:26.814Z,99400.20
2019-03-09T11:51:07.259Z,99402.56
2019-03-09T11:53:41.323Z,99409.94
2019-03-09T11:56:15.900Z,99390.69
2019-03-09T11:58:52.691Z,99386.98
2019-03-09T12:01:26.343Z,99325.67
2019-03-09T12:04:01.740Z,99339.16
2019-03-09T12:06:35.906Z,99304.31
2019-03-09T12:09:11.666Z,99311.19
2019-03-09T12:11:59.447Z,99312.58
2019-03-09T12:14:32.681Z,99289.33
2019-03-09T12:17:12.684Z,99288.98
2019-03-09T12:19:46.796Z,99278.04
2019-03-09T12:22:21.079Z,99313.45
2019-03-09T12:24:57.683Z,99306.66
2019-03-09T12:27:31.904Z,99286.00
2019-03-09T12:30:09.198Z,99293.56
2019-03-09T12:32:43.886Z,99289.73
2019-03-09T12:35:20.331Z,99273.76
2019-03-09T12:37:55.355Z,99278.87
2019-03-09T12:40:29.350Z,99268.66
2019-03-09T12:43:03.509Z,99254.85
2019-03-09T12:45:41.955Z,99229.33
2019-03-09T12:48:21.002Z,99213.48
2019-03-09T12:50:57.373Z,99230.23
2019-03-09T12:53:33.618Z,99243.12
2019-03-09T12:56:08.261Z,99252.27
2019-03-09T12:58:41.200Z,99236.56
2019-03-09T13:01:17.597Z,99234.23
2019-03-09T13:03:55.200Z,99235.86
2019-03-09T13:06:31.539Z,99225.42
2019-03-09T13:09:08.308Z,99229.20
2019-03-09T13:11:46.028Z,99222.50
2019-03-09T13:14:21.237Z,99220.09
2019-03-09T13:16:54.140Z,99206.66
2019-03-09T13:19:27.694Z,99217.13
2019-03-09T13:22:02.251Z,99188.73
2019-03-09T13:24:37.092Z,99217.77
2019-03-09T13:27:10.546Z,99201.86
2019-03-09T13:29:47.066Z,99205.50
2019-03-09T13:32:21.748Z,99185.67
2019-03-09T13:34:55.384Z,99173.20
2019-03-09T13:37:28.616Z,99196.40
2019-03-09T13:40:01.816Z,99169.31
2019-03-09T13:42:36.352Z,99179.91
2019-03-09T13:45:15.606Z,99177.66
2019-03-09T13:47:48.985Z,99176.70
2019-03-09T13:50:22.724Z,99156.12
2019-03-09T13:52:57.293Z,99181.60
2019-03-09T13:55:31.136Z,99173.32
2019-03-09T13:58:03.875Z,99164.27
2019-03-09T14:00:40.692Z,99152.12
2019-03-09T14:03:15.270Z,99195.42
2019-03-09T14:05:48.747Z,99185.30
2019-03-09T14:08:24.395Z,99189.25
2019-03-09T14:10:57.679Z,99184.09
2019-03-09T14:13:34.351Z,99181.94
2019-03-09T14:16:08.522Z,99170.52
2019-03-09T14:18:54.524Z,99171.63
2019-03-09T14:21:27.461Z,99156.50
2019-03-09T14:24:03.069Z,99166.70
2019-03-09T14:26:44.018Z,99150.89
2019-03-09T14:29:20.133Z,99134.15
2019-03-09T14:31:55.060Z,99170.19
2019-03-09T14:34:28.135Z,99164.41
2019-03-09T14:37:06.747Z,99158.55
2019-03-09T14:39:40.123Z,99164.48
2019-03-09T14:42:13.018Z,99152.41
2019-03-09T14:44:45.618Z,99146.78
2019-03-09T14:47:18.171Z,99159.48
2019-03-09T14:49:51.683Z,99146.00
2019-03-09T14:52:25.361Z,99153.25
2019-03-09T14:54:58.106Z,99168.91
2019-03-09T14:57:31.309Z,99156.00
2019-03-09T15:00:09.304Z,99149.17
2019-03-09T15:02:43.830Z,99194.88
2019-03-09T15:05:20.468Z,99161.88
2019-03-09T15:08:00.647Z,99159.66
2019-03-09T15:10:33.498Z,99147.66
2019-03-09T15:13:09.963Z,99161.80
2019-03-09T15:15:42.745Z,99153.72
2019-03-09T15:18:16.461Z,99136.73
2019-03-09T15:20:51.244Z,99153.31
2019-03-09T15:23:24.263Z,99130.09
2019-03-09T15:25:58.492Z,99142.83
2019-03-09T15:28:32.442Z,99147.16
2019-03-09T15:31:07.354Z,99123.48
2019-03-09T15:33:52.295Z,99117.87
2019-03-09T15:36:27.390Z,99118.10
2019-03-09T15:39:01.940Z,99135.36
2019-03-09T15:41:37.359Z,99141.11
2019-03-09T15:44:11.611Z,99170.45
2019-03-09T15:46:48.957Z,99142.08
2019-03-09T15:49:25.078Z,99172.44
2019-03-09T15:52:03.552Z,99170.16
2019-03-09T15:54:44.766Z,99141.69
2019-03-09T15:57:21.482Z,99190.25
2019-03-09T15:59:57.209Z,99169.74
2019-03-09T16:02:34.645Z,99195.95
2019-03-09T16:05:08.297Z,99239.11
2019-03-09T16:07:49.599Z,99236.78
2019-03-09T16:10:27.107Z,99261.13
2019-03-09T16:13:01.319Z,99268.92
2019-03-09T16:15:35.206Z,99287.12
2019-03-09T16:18:09.792Z,99279.48
2019-03-09T16:20:42.919Z,99298.35
2019-03-09T16:23:17.270Z,99273.12
2019-03-09T16:25:59.908Z,99305.83
2019-03-09T16:28:33.540Z,99287.38
2019-03-09T16:31:07.948Z,99320.80
2019-03-09T16:33:43.804Z,99395.66
2019-03-09T16:36:20.119Z,99500.64
2019-03-09T16:38:53.816Z,99448.52
2019-03-09T16:41:26.552Z,99471.97
2019-03-09T16:44:08.425Z,99457.97
2019-03-09T16:46:43.738Z,99511.19
2019-03-09T16:49:19.385Z,99481.70
2019-03-09T16:51:54.210Z,99549.05
2019-03-09T16:54:35.631Z,99481.83
2019-03-09T16:57:11.974Z,99490.83
2019-03-09T16:59:45.235Z,99509.66
2019-03-09T17:02:27.556Z,99508.83
2019-03-09T17:05:23.205Z,99497.48
2019-03-09T17:08:15.571Z,99519.39
2019-03-09T17:11:01.451Z,99533.19
2019-03-09T17:13:37.500Z,99522.81
2019-03-09T17:16:13.769Z,99552.09
2019-03-09T17:18:46.787Z,99540.69
2019-03-09T17:21:19.473Z,99542.53
2019-03-09T17:23:53.003Z,99541.55
2019-03-09T17:26:35.351Z,99561.94
2019-03-09T17:29:08.300Z,99564.89
2019-03-09T17:31:44.631Z,99590.34
2019-03-09T17:34:19.100Z,99584.64
2019-03-09T17:36:53.105Z,99606.18
2019-03-09T17:39:30.983Z,99594.92
2019-03-09T17:42:05.972Z,99608.85
2019-03-09T17:44:41.148Z,99610.90
2019-03-09T17:47:18.556Z,99622.03
2019-03-09T17:49:53.563Z,99629.38
2019-03-09T17:52:30.457Z,99627.28
2019-03-09T17:55:07.937Z,99639.74
2019-03-09T17:57:42.929Z,99627.71
2019-03-09T18:00:28.406Z,99633.97
2019-03-09T18:03:06.627Z,99640.03
2019-03-09T18:05:41.206Z,99640.95
2019-03-09T18:08:17.089Z,99660.72
2019-03-09T18:10:57.476Z,99670.19
2019-03-09T18:13:31.559Z,99683.25
2019-03-09T18:16:08.407Z,99694.63
2019-03-09T18:18:42.471Z,99681.84
2019-03-09T18:21:15.286Z,99691.57
2019-03-09T18:23:50.591Z,99693.70
2019-03-09T18:26:23.293Z,99695.94
2019-03-09T18:28:55.721Z,99702.59
2019-03-09T18:31:29.433Z,99704.20
2019-03-09T18:34:02.815Z,99712.61
2019-03-09T18:36:35.958Z,99725.05
2019-03-09T18:39:08.644Z,99732.13
2019-03-09T18:41:45.394Z,99742.28
2019-03-09T18:44:20.591Z,99738.83
2019-03-09T18:46:58.799Z,99749.51
2019-03-09T18:49:35.807Z,99745.06
2019-03-09T18:52:14.610Z,99751.31
2019-03-09T18:54:54.299Z,99738.58
2019-03-09T18:57:30.846Z,99739.11
2019-03-09T19:00:14.506Z,99738.49
2019-03-09T19:02:50.403Z,99755.15
2019-03-09T19:05:26.709Z,99764.41
2019-03-09T19:07:59.680Z,99771.31
2019-03-09T19:10:33.504Z,99780.45
2019-03-09T19:13:08.212Z,99775.27
2019-03-09T19:15:41.045Z,99765.19
2019-03-09T19:18:14.871Z,99769.06
2019-03-09T19:20:49.246Z,99773.94
2019-03-09T19:23:22.607Z,99778.61
2019-03-09T19:25:56.704Z,99780.69
2019-03-09T19:28:31.163Z,99782.19
2019-03-09T19:31:05.463Z,99781.77
2019-03-09T19:33:39.546Z,99777.39
2019-03-09T19:36:13.511Z,99779.19
2019-03-09T19:38:58.695Z,99795.28
2019-03-09T19:41:32.839Z,99794.48
2019-03-09T19:44:09.194Z,99803.81
2019-03-09T19:46:43.333Z,99801.12
2019-03-09T19:49:55.076Z,99818.70
2019-03-09T19:52:46.732Z,99813.58
2019-03-09T19:55:25.759Z,99807.80
2019-03-09T19:57:59.999Z,99815.80
2019-03-09T20:00:35.464Z,99822.00
2019-03-09T20:03:10.447Z,99821.66
2019-03-09T20:05:43.765Z,99823.77
2019-03-09T20:08:16.700Z,99811.30
2019-03-09T20:10:50.801Z,99822.21
2019-03-09T20:13:24.767Z,99820.61
2019-03-09T20:15:59.160Z,99818.52
2019-03-09T20:18:32.700Z,99816.06
2019-03-09T20:21:11.647Z,99818.48
2019-03-09T20:23:45.081Z,99821.41
2019-03-09T20:26:21.125Z,99812.38
2019-03-09T20:28:55.894Z,99820.35
2019-03-09T20:31:32.072Z,99816.11
2019-03-09T20:34:06.858Z,99816.98
2019-03-09T20:36:41.052Z,99812.17
2019-03-09T20:39:13.802Z,99815.10
2019-03-09T20:41:46.549Z,99822.52
2019-03-09T20:44:20.910Z,99823.41
2019-03-09T20:46:55.095Z,99823.13
2019-03-09T20:49:28.188Z,99828.86
2019-03-09T20:52:00.916Z,99829.45
2019-03-09T20:54:33.447Z,99832.77
2019-03-09T20:57:08.428Z,99830.99
2019-03-09T20:59:45.348Z,99834.97
2019-03-09T21:02:18.861Z,99835.86
2019-03-09T21:04:52.604Z,99830.55
2019-03-09T21:07:27.294Z,99842.00
2019-03-09T21:10:01.972Z,99840.85
2019-03-09T21:12:36.079Z,99837.87
2019-03-09T21:15:09.478Z,99834.02
2019-03-09T21:17:44.858Z,99837.17
2019-03-09T21:20:20.425Z,99836.47
2019-03-09T21:22:54.509Z,99834.59
2019-03-09T21:25:28.779Z,99833.05
2019-03-09T21:28:14.753Z,99823.91
2019-03-09T21:30:50.985Z,99830.66
2019-03-09T21:33:26.423Z,99833.93
2019-03-09T21:36:01.455Z,99832.68
2019-03-09T21:38:36.364Z,99831.97
2019-03-09T21:41:10.765Z,99834.98
2019-03-09T21:43:44.994Z,99835.56
2019-03-09T21:46:21.188Z,99835.09
2019-03-09T21:48:55.470Z,99832.09
2019-03-09T21:51:29.414Z,99834.89
2019-03-09T21:54:03.068Z,99824.86
2019-03-09T21:56:37.326Z,99827.82
2019-03-09T21:59:10.574Z,99827.56
2019-03-09T22:01:43.748Z,99828.11
2019-03-09T22:04:18.331Z,99822.66
2019-03-09T22:06:51.915Z,99825.73
2019-03-09T22:09:27.014Z,99825.30
2019-03-09T22:12:00.173Z,99827.68
2019-03-09T22:14:32.869Z,99830.67
2019-03-09T22:17:05.761Z,99835.34
2019-03-09T22:19:45.579Z,99836.62
2019-03-09T22:22:19.636Z,99833.45
2019-03-09T22:24:53.671Z,99828.66
2019-03-09T22:27:27.283Z,99840.95
2019-03-09T22:30:03.767Z,99835.16
2019-03-09T22:32:36.843Z,99841.77
2019-03-09T22:35:15.706Z,99828.68
2019-03-09T22:37:51.640Z,99834.42
2019-03-09T22:40:25.615Z,99834.16
2019-03-09T22:42:58.025Z,99832.02
2019-03-09T22:45:31.785Z,99835.33
2019-03-09T22:48:08.455Z,99828.45
2019-03-09T22:50:41.966Z,99821.73
2019-03-09T22:53:16.799Z,99825.48
2019-03-09T22:55:49.651Z,99828.70
2019-03-09T22:58:22.895Z,99822.80
2019-03-09T23:00:57.931Z,99826.42
2019-03-09T23:03:30.512Z,99824.37
2019-03-09T23:06:05.101Z,99825.55
2019-03-09T23:08:38.783Z,99824.61
2019-03-09T23:11:12.138Z,99831.72
2019-03-09T23:13:44.769Z,99830.55
2019-03-09T23:16:17.883Z,99827.00
2019-03-09T23:18:50.556Z,99825.30
2019-03-09T23:21:23.519Z,99823.90
2019-03-09T23:23:56.455Z,99811.33
2019-03-09T23:26:29.208Z,99802.45
2019-03-09T23:29:01.844Z,99791.74
2019-03-09T23:31:35.152Z,99794.92
2019-03-09T23:34:08.304Z,99800.63
2019-03-09T23:36:41.223Z,99798.63
2019-03-09T23:39:14.836Z,99803.20
2019-03-09T23:41:50.239Z,99805.74
2019-03-09T23:44:22.825Z,99796.08
2019-03-09T23:46:55.846Z,99791.64
2019-03-09T23:49:29.570Z,99797.66
2019-03-09T23:52:02.933Z,99787.37
2019-03-09T23:54:41.157Z,99782.61
2019-03-09T23:57:15.639Z,99792.27
2019-03-09T23:59:51.952Z,99796.42
